sensor_id;sensor_type;location;lat;lon;timestamp;pressure;altitude;pressure_sealevel;temperature;humidity
28428;BME280;15662;49.128;8.520;2024-01-06T00:00:39;99309.50;;;12.45;49.25
28428;BME280;15662;49.128;8.520;2024-01-06T00:03:06;99302.38;;;12.46;49.35
28428;BME280;15662;49.128;8.520;2024-01-06T00:05:34;99304.03;;;12.48;49.35
28428;BME280;15662;49.128;8.520;2024-01-06T00:08:01;99303.19;;;12.48;49.43
28428;BME280;15662;49.128;8.520;2024-01-06T00:10:28;99310.22;;;12.49;49.61
28428;BME280;15662;49.128;8.520;2024-01-06T00:12:55;99304.81;;;12.50;49.40
28428;BME280;15662;49.128;8.520;2024-01-06T00:15:22;99313.81;;;12.48;49.33
28428;BME280;15662;49.128;8.520;2024-01-06T00:17:50;99312.09;;;12.47;49.61
28428;BME280;15662;49.128;8.520;2024-01-06T00:20:17;99306.84;;;12.45;49.30
28428;BME280;15662;49.128;8.520;2024-01-06T00:22:44;99315.75;;;12.44;49.57
28428;BME280;15662;49.128;8.520;2024-01-06T00:25:11;99312.25;;;12.44;49.40
28428;BME280;15662;49.128;8.520;2024-01-06T00:27:38;99310.59;;;12.41;49.52
28428;BME280;15662;49.128;8.520;2024-01-06T00:30:06;99309.66;;;12.42;49.52
28428;BME280;15662;49.128;8.520;2024-01-06T00:32:33;99314.19;;;12.40;49.71
28428;BME280;15662;49.128;8.520;2024-01-06T00:35:04;99310.84;;;12.36;49.59
28428;BME280;15662;49.128;8.520;2024-01-06T00:37:31;99312.63;;;12.36;49.96
28428;BME280;15662;49.128;8.520;2024-01-06T00:40:00;99307.28;;;12.36;49.62
28428;BME280;15662;49.128;8.520;2024-01-06T00:42:27;99304.81;;;12.33;49.57
28428;BME280;15662;49.128;8.520;2024-01-06T00:44:54;99314.41;;;12.35;49.62
28428;BME280;15662;49.128;8.520;2024-01-06T00:47:21;99308.56;;;12.29;50.00
28428;BME280;15662;49.128;8.520;2024-01-06T00:49:51;99312.78;;;12.33;49.83
28428;BME280;15662;49.128;8.520;2024-01-06T00:52:18;99308.41;;;12.32;49.85
28428;BME280;15662;49.128;8.520;2024-01-06T00:54:45;99303.97;;;12.32;49.66
28428;BME280;15662;49.128;8.520;2024-01-06T00:57:14;99312.69;;;12.34;49.85
28428;BME280;15662;49.128;8.520;2024-01-06T00:59:41;99315.34;;;12.34;49.96
28428;BME280;15662;49.128;8.520;2024-01-06T01:02:17;99311.97;;;12.31;49.85
28428;BME280;15662;49.128;8.520;2024-01-06T01:04:44;99315.28;;;12.36;50.04
28428;BME280;15662;49.128;8.520;2024-01-06T01:07:12;99329.28;;;12.39;49.69
28428;BME280;15662;49.128;8.520;2024-01-06T01:09:39;99325.91;;;12.36;49.73
28428;BME280;15662;49.128;8.520;2024-01-06T01:12:06;99338.09;;;12.40;49.64
28428;BME280;15662;49.128;8.520;2024-01-06T01:14:33;99332.78;;;12.40;49.75
28428;BME280;15662;49.128;8.520;2024-01-06T01:17:01;99327.78;;;12.34;49.68
28428;BME280;15662;49.128;8.520;2024-01-06T01:19:28;99337.16;;;12.41;49.53
28428;BME280;15662;49.128;8.520;2024-01-06T01:21:55;99347.72;;;12.43;49.61
28428;BME280;15662;49.128;8.520;2024-01-06T01:24:22;99345.94;;;12.43;49.86
28428;BME280;15662;49.128;8.520;2024-01-06T01:26:50;99351.16;;;12.45;49.51
28428;BME280;15662;49.128;8.520;2024-01-06T01:29:17;99346.94;;;12.40;49.78
28428;BME280;15662;49.128;8.520;2024-01-06T01:31:47;99358.28;;;12.44;49.80
28428;BME280;15662;49.128;8.520;2024-01-06T01:34:14;99358.19;;;12.46;49.86
28428;BME280;15662;49.128;8.520;2024-01-06T01:36:41;99357.28;;;12.47;49.74
28428;BME280;15662;49.128;8.520;2024-01-06T01:39:09;99362.66;;;12.45;49.76
28428;BME280;15662;49.128;8.520;2024-01-06T01:41:36;99363.69;;;12.43;49.87
28428;BME280;15662;49.128;8.520;2024-01-06T01:44:04;99360.84;;;12.46;49.43
28428;BME280;15662;49.128;8.520;2024-01-06T01:46:32;99364.53;;;12.43;49.41
28428;BME280;15662;49.128;8.520;2024-01-06T01:49:01;99383.69;;;12.50;49.71
28428;BME280;15662;49.128;8.520;2024-01-06T01:51:31;99382.81;;;12.49;49.51
28428;BME280;15662;49.128;8.520;2024-01-06T01:54:03;99378.59;;;12.45;49.37
28428;BME280;15662;49.128;8.520;2024-01-06T01:56:32;99384.09;;;12.42;49.46
28428;BME280;15662;49.128;8.520;2024-01-06T01:59:09;99384.22;;;12.39;49.63
28428;BME280;15662;49.128;8.520;2024-01-06T02:01:41;99383.59;;;12.34;49.51
28428;BME280;15662;49.128;8.520;2024-01-06T02:04:09;99376.69;;;12.30;49.62
28428;BME280;15662;49.128;8.520;2024-01-06T02:06:36;99394.56;;;12.26;49.25
28428;BME280;15662;49.128;8.520;2024-01-06T02:09:04;99392.16;;;12.22;49.55
28428;BME280;15662;49.128;8.520;2024-01-06T02:11:31;99401.19;;;12.18;49.24
28428;BME280;15662;49.128;8.520;2024-01-06T02:13:58;99398.75;;;12.13;49.35
28428;BME280;15662;49.128;8.520;2024-01-06T02:16:25;99408.03;;;12.04;49.28
28428;BME280;15662;49.128;8.520;2024-01-06T02:18:52;99404.84;;;11.96;49.72
28428;BME280;15662;49.128;8.520;2024-01-06T02:21:21;99411.09;;;11.95;49.39
28428;BME280;15662;49.128;8.520;2024-01-06T02:23:49;99405.22;;;11.88;49.31
28428;BME280;15662;49.128;8.520;2024-01-06T02:26:17;99421.00;;;11.92;49.64
28428;BME280;15662;49.128;8.520;2024-01-06T02:28:45;99420.13;;;11.91;49.27
28428;BME280;15662;49.128;8.520;2024-01-06T02:31:15;99418.56;;;11.87;49.51
28428;BME280;15662;49.128;8.520;2024-01-06T02:33:42;99426.59;;;11.85;49.75
28428;BME280;15662;49.128;8.520;2024-01-06T02:36:09;99425.81;;;11.83;49.79
28428;BME280;15662;49.128;8.520;2024-01-06T02:38:36;99419.75;;;11.80;49.78
28428;BME280;15662;49.128;8.520;2024-01-06T02:41:03;99432.16;;;11.79;49.52
28428;BME280;15662;49.128;8.520;2024-01-06T02:43:31;99426.13;;;11.76;49.74
28428;BME280;15662;49.128;8.520;2024-01-06T02:45:58;99425.34;;;11.74;49.78
28428;BME280;15662;49.128;8.520;2024-01-06T02:48:26;99435.16;;;11.72;49.72
28428;BME280;15662;49.128;8.520;2024-01-06T02:50:53;99435.34;;;11.67;50.04
28428;BME280;15662;49.128;8.520;2024-01-06T02:53:20;99438.91;;;11.68;49.87
28428;BME280;15662;49.128;8.520;2024-01-06T02:55:48;99436.25;;;11.68;49.83
28428;BME280;15662;49.128;8.520;2024-01-06T02:58:15;99437.09;;;11.68;49.89
28428;BME280;15662;49.128;8.520;2024-01-06T03:00:42;99437.31;;;11.63;49.87
28428;BME280;15662;49.128;8.520;2024-01-06T03:03:09;99437.31;;;11.63;49.88
28428;BME280;15662;49.128;8.520;2024-01-06T03:05:37;99434.69;;;11.62;50.02
28428;BME280;15662;49.128;8.520;2024-01-06T03:08:04;99438.16;;;11.64;49.83
28428;BME280;15662;49.128;8.520;2024-01-06T03:10:32;99439.22;;;11.60;50.07
28428;BME280;15662;49.128;8.520;2024-01-06T03:12:59;99437.50;;;11.59;49.90
28428;BME280;15662;49.128;8.520;2024-01-06T03:15:26;99445.53;;;11.57;49.79
28428;BME280;15662;49.128;8.520;2024-01-06T03:17:53;99445.59;;;11.56;49.82
28428;BME280;15662;49.128;8.520;2024-01-06T03:20:21;99441.97;;;11.58;49.74
28428;BME280;15662;49.128;8.520;2024-01-06T03:22:48;99452.59;;;11.58;49.92
28428;BME280;15662;49.128;8.520;2024-01-06T03:25:16;99452.50;;;11.60;50.05
28428;BME280;15662;49.128;8.520;2024-01-06T03:27:43;99446.53;;;11.55;50.05
28428;BME280;15662;49.128;8.520;2024-01-06T03:30:11;99462.06;;;11.64;50.16
28428;BME280;15662;49.128;8.520;2024-01-06T03:32:39;99461.97;;;11.66;50.12
28428;BME280;15662;49.128;8.520;2024-01-06T03:35:06;99462.84;;;11.66;49.99
28428;BME280;15662;49.128;8.520;2024-01-06T03:37:34;99464.56;;;11.67;50.10
28428;BME280;15662;49.128;8.520;2024-01-06T03:40:01;99459.03;;;11.72;50.21
28428;BME280;15662;49.128;8.520;2024-01-06T03:42:29;99456.25;;;11.75;50.34
28428;BME280;15662;49.128;8.520;2024-01-06T03:44:57;99456.13;;;11.78;50.17
28428;BME280;15662;49.128;8.520;2024-01-06T03:47:24;99451.59;;;11.80;50.42
28428;BME280;15662;49.128;8.520;2024-01-06T03:49:51;99452.47;;;11.80;50.12
28428;BME280;15662;49.128;8.520;2024-01-06T03:52:18;99455.03;;;11.83;50.51
28428;BME280;15662;49.128;8.520;2024-01-06T03:54:46;99464.63;;;11.86;50.46
28428;BME280;15662;49.128;8.520;2024-01-06T03:57:13;99452.28;;;11.85;50.31
28428;BME280;15662;49.128;8.520;2024-01-06T03:59:42;99461.84;;;11.89;50.17
28428;BME280;15662;49.128;8.520;2024-01-06T04:02:09;99462.69;;;11.90;50.51
28428;BME280;15662;49.128;8.520;2024-01-06T04:04:36;99466.22;;;11.90;50.46
28428;BME280;15662;49.128;8.520;2024-01-06T04:07:03;99448.84;;;11.83;50.61
28428;BME280;15662;49.128;8.520;2024-01-06T04:09:32;99457.47;;;11.88;50.28
28428;BME280;15662;49.128;8.520;2024-01-06T04:11:59;99463.44;;;11.93;50.29
28428;BME280;15662;49.128;8.520;2024-01-06T04:14:28;99460.63;;;11.96;50.48
28428;BME280;15662;49.128;8.520;2024-01-06T04:16:55;99465.03;;;11.97;50.54
28428;BME280;15662;49.128;8.520;2024-01-06T04:19:23;99447.56;;;11.92;50.41
28428;BME280;15662;49.128;8.520;2024-01-06T04:21:51;99451.97;;;11.93;50.48
28428;BME280;15662;49.128;8.520;2024-01-06T04:24:18;99451.66;;;11.99;50.63
28428;BME280;15662;49.128;8.520;2024-01-06T04:26:45;99457.63;;;12.04;50.41
28428;BME280;15662;49.128;8.520;2024-01-06T04:29:13;99451.47;;;12.03;50.23
28428;BME280;15662;49.128;8.520;2024-01-06T04:31:41;99446.88;;;12.07;50.73
28428;BME280;15662;49.128;8.520;2024-01-06T04:34:08;99431.16;;;12.02;50.29
28428;BME280;15662;49.128;8.520;2024-01-06T04:36:36;99444.91;;;12.10;50.37
28428;BME280;15662;49.128;8.520;2024-01-06T04:39:03;99436.72;;;12.15;50.56
28428;BME280;15662;49.128;8.520;2024-01-06T04:41:30;99423.44;;;12.15;50.17
28428;BME280;15662;49.128;8.520;2024-01-06T04:43:57;99402.50;;;12.09;50.30
28428;BME280;15662;49.128;8.520;2024-01-06T04:46:24;99419.00;;;12.16;50.14
28428;BME280;15662;49.128;8.520;2024-01-06T04:48:52;99419.28;;;12.09;50.36
28428;BME280;15662;49.128;8.520;2024-01-06T04:51:19;99422.88;;;12.08;50.33
28428;BME280;15662;49.128;8.520;2024-01-06T04:53:46;99425.84;;;12.02;50.28
28428;BME280;15662;49.128;8.520;2024-01-06T04:56:13;99439.91;;;12.04;50.18
28428;BME280;15662;49.128;8.520;2024-01-06T04:58:40;99437.44;;;12.00;50.23
28428;BME280;15662;49.128;8.520;2024-01-06T05:01:07;99438.47;;;11.97;50.40
28428;BME280;15662;49.128;8.520;2024-01-06T05:03:35;99430.50;;;11.97;50.64
28428;BME280;15662;49.128;8.520;2024-01-06T05:06:03;99433.00;;;12.00;50.45
28428;BME280;15662;49.128;8.520;2024-01-06T05:08:30;99445.28;;;12.03;50.60
28428;BME280;15662;49.128;8.520;2024-01-06T05:10:58;99451.47;;;12.03;50.33
28428;BME280;15662;49.128;8.520;2024-01-06T05:13:25;99456.78;;;12.03;50.62
28428;BME280;15662;49.128;8.520;2024-01-06T05:15:52;99454.16;;;12.02;50.37
28428;BME280;15662;49.128;8.520;2024-01-06T05:18:19;99445.50;;;11.98;50.59
28428;BME280;15662;49.128;8.520;2024-01-06T05:20:46;99455.81;;;12.04;50.28
28428;BME280;15662;49.128;8.520;2024-01-06T05:23:14;99451.38;;;12.05;50.63
28428;BME280;15662;49.128;8.520;2024-01-06T05:25:41;99450.31;;;12.09;50.61
28428;BME280;15662;49.128;8.520;2024-01-06T05:28:08;99442.34;;;12.09;50.50
28428;BME280;15662;49.128;8.520;2024-01-06T05:30:35;99446.72;;;12.10;50.44
28428;BME280;15662;49.128;8.520;2024-01-06T05:33:03;99454.47;;;12.14;50.30
28428;BME280;15662;49.128;8.520;2024-01-06T05:35:30;99454.38;;;12.16;50.32
28428;BME280;15662;49.128;8.520;2024-01-06T05:37:58;99452.66;;;12.15;50.49
28428;BME280;15662;49.128;8.520;2024-01-06T05:40:25;99443.84;;;12.14;50.46
28428;BME280;15662;49.128;8.520;2024-01-06T05:42:52;99455.19;;;12.18;50.41
28428;BME280;15662;49.128;8.520;2024-01-06T05:45:22;99459.56;;;12.19;50.11
28428;BME280;15662;49.128;8.520;2024-01-06T05:47:51;99462.13;;;12.21;50.54
28428;BME280;15662;49.128;8.520;2024-01-06T05:50:18;99467.44;;;12.21;50.34
28428;BME280;15662;49.128;8.520;2024-01-06T05:52:45;99464.03;;;12.19;50.28
28428;BME280;15662;49.128;8.520;2024-01-06T05:55:15;99464.88;;;12.19;50.52
28428;BME280;15662;49.128;8.520;2024-01-06T05:57:42;99465.81;;;12.18;50.34
28428;BME280;15662;49.128;8.520;2024-01-06T06:00:10;99469.25;;;12.20;50.28
28428;BME280;15662;49.128;8.520;2024-01-06T06:02:41;99472.13;;;12.16;50.36
28428;BME280;15662;49.128;8.520;2024-01-06T06:05:08;99465.00;;;12.16;50.43
28428;BME280;15662;49.128;8.520;2024-01-06T06:07:36;99479.03;;;12.20;50.45
28428;BME280;15662;49.128;8.520;2024-01-06T06:10:11;99475.59;;;12.18;50.28
28428;BME280;15662;49.128;8.520;2024-01-06T06:12:39;99482.53;;;12.20;50.34
28428;BME280;15662;49.128;8.520;2024-01-06T06:15:06;99488.50;;;12.25;50.09
28428;BME280;15662;49.128;8.520;2024-01-06T06:17:35;99493.75;;;12.27;50.07
28428;BME280;15662;49.128;8.520;2024-01-06T06:20:03;99497.31;;;12.26;50.20
28428;BME280;15662;49.128;8.520;2024-01-06T06:22:30;99492.88;;;12.26;50.39
28428;BME280;15662;49.128;8.520;2024-01-06T06:24:59;99501.78;;;12.25;50.12
28428;BME280;15662;49.128;8.520;2024-01-06T06:27:27;99507.94;;;12.26;50.11
28428;BME280;15662;49.128;8.520;2024-01-06T06:29:54;99520.47;;;12.24;50.20
28428;BME280;15662;49.128;8.520;2024-01-06T06:32:23;99513.44;;;12.23;50.02
28428;BME280;15662;49.128;8.520;2024-01-06T06:34:50;99519.59;;;12.23;50.25
28428;BME280;15662;49.128;8.520;2024-01-06T06:37:17;99519.72;;;12.20;50.49
28428;BME280;15662;49.128;8.520;2024-01-06T06:39:45;99529.28;;;12.24;50.27
28428;BME280;15662;49.128;8.520;2024-01-06T06:42:12;99524.84;;;12.25;50.42
28428;BME280;15662;49.128;8.520;2024-01-06T06:44:39;99523.13;;;12.24;49.94
28428;BME280;15662;49.128;8.520;2024-01-06T06:47:06;99537.91;;;12.29;50.33
28428;BME280;15662;49.128;8.520;2024-01-06T06:49:34;99539.72;;;12.29;50.15
28428;BME280;15662;49.128;8.520;2024-01-06T06:52:02;99538.75;;;12.30;50.30
28428;BME280;15662;49.128;8.520;2024-01-06T06:54:30;99537.19;;;12.26;50.19
28428;BME280;15662;49.128;8.520;2024-01-06T06:56:58;99543.31;;;12.28;50.08
28428;BME280;15662;49.128;8.520;2024-01-06T06:59:25;99539.78;;;12.27;50.26
28428;BME280;15662;49.128;8.520;2024-01-06T07:01:52;99544.38;;;12.24;50.24
28428;BME280;15662;49.128;8.520;2024-01-06T07:04:19;99555.00;;;12.24;50.17
28428;BME280;15662;49.128;8.520;2024-01-06T07:06:46;99545.44;;;12.20;50.30
28428;BME280;15662;49.128;8.520;2024-01-06T07:09:13;99553.47;;;12.18;50.43
28428;BME280;15662;49.128;8.520;2024-01-06T07:11:41;99562.22;;;12.20;50.19
28428;BME280;15662;49.128;8.520;2024-01-06T07:14:08;99564.03;;;12.20;50.25
28428;BME280;15662;49.128;8.520;2024-01-06T07:16:35;99570.38;;;12.17;50.58
28428;BME280;15662;49.128;8.520;2024-01-06T07:19:02;99553.81;;;12.10;50.57
28428;BME280;15662;49.128;8.520;2024-01-06T07:21:29;99576.59;;;12.16;50.55
28428;BME280;15662;49.128;8.520;2024-01-06T07:23:57;99575.03;;;12.12;50.27
28428;BME280;15662;49.128;8.520;2024-01-06T07:26:24;99584.75;;;12.11;50.51
28428;BME280;15662;49.128;8.520;2024-01-06T07:28:51;99587.41;;;12.11;50.68
28428;BME280;15662;49.128;8.520;2024-01-06T07:31:18;99587.50;;;12.10;50.81
28428;BME280;15662;49.128;8.520;2024-01-06T07:33:45;99583.03;;;12.10;50.72
28428;BME280;15662;49.128;8.520;2024-01-06T07:36:12;99590.06;;;12.11;50.59
28428;BME280;15662;49.128;8.520;2024-01-06T07:38:39;99578.78;;;12.06;50.71
28428;BME280;15662;49.128;8.520;2024-01-06T07:41:07;99587.50;;;12.10;50.75
28428;BME280;15662;49.128;8.520;2024-01-06T07:43:34;99577.88;;;12.07;50.49
28428;BME280;15662;49.128;8.520;2024-01-06T07:46:01;99579.72;;;12.05;50.78
28428;BME280;15662;49.128;8.520;2024-01-06T07:48:30;99583.19;;;12.07;50.64
28428;BME280;15662;49.128;8.520;2024-01-06T07:50:57;99587.66;;;12.07;50.90
28428;BME280;15662;49.128;8.520;2024-01-06T07:53:24;99592.03;;;12.08;50.79
28428;BME280;15662;49.128;8.520;2024-01-06T07:55:52;99590.44;;;12.04;50.64
28428;BME280;15662;49.128;8.520;2024-01-06T07:58:19;99593.75;;;12.09;50.62
28428;BME280;15662;49.128;8.520;2024-01-06T08:00:47;99604.28;;;12.10;50.87
28428;BME280;15662;49.128;8.520;2024-01-06T08:03:14;99604.44;;;12.07;50.73
28428;BME280;15662;49.128;8.520;2024-01-06T08:05:43;99612.25;;;12.10;50.59
28428;BME280;15662;49.128;8.520;2024-01-06T08:08:10;99614.13;;;12.08;50.68
28428;BME280;15662;49.128;8.520;2024-01-06T08:10:39;99616.50;;;12.14;50.61
28428;BME280;15662;49.128;8.520;2024-01-06T08:13:07;99619.91;;;12.18;50.88
28428;BME280;15662;49.128;8.520;2024-01-06T08:15:34;99624.19;;;12.21;51.00
28428;BME280;15662;49.128;8.520;2024-01-06T08:18:01;99622.34;;;12.23;50.88
28428;BME280;15662;49.128;8.520;2024-01-06T08:20:28;99629.38;;;12.24;51.04
28428;BME280;15662;49.128;8.520;2024-01-06T08:22:55;99628.44;;;12.25;50.75
28428;BME280;15662;49.128;8.520;2024-01-06T08:25:23;99628.25;;;12.29;50.92
28428;BME280;15662;49.128;8.520;2024-01-06T08:27:50;99628.16;;;12.31;50.80
28428;BME280;15662;49.128;8.520;2024-01-06T08:30:17;99624.84;;;12.26;50.92
28428;BME280;15662;49.128;8.520;2024-01-06T08:32:44;99642.19;;;12.34;50.99
28428;BME280;15662;49.128;8.520;2024-01-06T08:35:11;99640.28;;;12.38;50.91
28428;BME280;15662;49.128;8.520;2024-01-06T08:37:39;99649.03;;;12.40;51.20
28428;BME280;15662;49.128;8.520;2024-01-06T08:40:07;99655.00;;;12.45;51.18
28428;BME280;15662;49.128;8.520;2024-01-06T08:42:34;99647.97;;;12.44;51.09
28428;BME280;15662;49.128;8.520;2024-01-06T08:45:01;99659.97;;;12.53;50.99
28428;BME280;15662;49.128;8.520;2024-01-06T08:47:29;99653.00;;;12.50;50.97
28428;BME280;15662;49.128;8.520;2024-01-06T08:49:56;99652.88;;;12.53;51.27
28428;BME280;15662;49.128;8.520;2024-01-06T08:52:23;99647.47;;;12.55;51.22
28428;BME280;15662;49.128;8.520;2024-01-06T08:54:50;99664.03;;;12.61;51.17
28428;BME280;15662;49.128;8.520;2024-01-06T08:57:18;99666.47;;;12.66;51.35
28428;BME280;15662;49.128;8.520;2024-01-06T08:59:45;99665.34;;;12.72;51.11
28428;BME280;15662;49.128;8.520;2024-01-06T09:02:12;99661.09;;;12.68;51.08
28428;BME280;15662;49.128;8.520;2024-01-06T09:04:39;99673.16;;;12.75;51.35
28428;BME280;15662;49.128;8.520;2024-01-06T09:07:06;99674.81;;;12.77;51.14
28428;BME280;15662;49.128;8.520;2024-01-06T09:09:33;99670.28;;;12.79;51.43
28428;BME280;15662;49.128;8.520;2024-01-06T09:12:01;99670.16;;;12.82;51.26
28428;BME280;15662;49.128;8.520;2024-01-06T09:14:28;99669.22;;;12.83;51.33
28428;BME280;15662;49.128;8.520;2024-01-06T09:16:55;99664.03;;;12.80;51.40
28428;BME280;15662;49.128;8.520;2024-01-06T09:19:22;99664.09;;;12.79;51.36
28428;BME280;15662;49.128;8.520;2024-01-06T09:21:50;99656.34;;;12.74;51.47
28428;BME280;15662;49.128;8.520;2024-01-06T09:24:17;99669.50;;;12.77;51.53
28428;BME280;15662;49.128;8.520;2024-01-06T09:26:44;99664.22;;;12.76;51.37
28428;BME280;15662;49.128;8.520;2024-01-06T09:29:11;99678.13;;;12.82;51.41
28428;BME280;15662;49.128;8.520;2024-01-06T09:31:39;99676.47;;;12.80;51.66
28428;BME280;15662;49.128;8.520;2024-01-06T09:34:10;99685.94;;;12.85;51.45
28428;BME280;15662;49.128;8.520;2024-01-06T09:36:37;99685.25;;;12.82;51.60
28428;BME280;15662;49.128;8.520;2024-01-06T09:39:05;99691.34;;;12.84;51.34
28428;BME280;15662;49.128;8.520;2024-01-06T09:41:32;99689.63;;;12.83;51.50
28428;BME280;15662;49.128;8.520;2024-01-06T09:44:00;99682.78;;;12.77;51.43
28428;BME280;15662;49.128;8.520;2024-01-06T09:46:28;99688.69;;;12.84;51.37
28428;BME280;15662;49.128;8.520;2024-01-06T09:48:58;99686.97;;;12.83;51.34
28428;BME280;15662;49.128;8.520;2024-01-06T09:51:26;99693.94;;;12.85;51.47
28428;BME280;15662;49.128;8.520;2024-01-06T09:53:58;99694.88;;;12.84;51.37
28428;BME280;15662;49.128;8.520;2024-01-06T09:56:28;99692.22;;;12.84;51.45
28428;BME280;15662;49.128;8.520;2024-01-06T09:58:56;99694.88;;;12.84;51.68
28428;BME280;15662;49.128;8.520;2024-01-06T10:01:23;99699.25;;;12.85;51.37
28428;BME280;15662;49.128;8.520;2024-01-06T10:03:51;99701.06;;;12.85;51.47
28428;BME280;15662;49.128;8.520;2024-01-06T10:06:19;99713.56;;;12.83;51.46
28428;BME280;15662;49.128;8.520;2024-01-06T10:08:52;99713.47;;;12.84;51.45
28428;BME280;15662;49.128;8.520;2024-01-06T10:11:22;99697.47;;;12.86;51.52
28428;BME280;15662;49.128;8.520;2024-01-06T10:13:50;99695.72;;;12.85;51.59
28428;BME280;15662;49.128;8.520;2024-01-06T10:16:19;99686.03;;;12.84;51.54
28428;BME280;15662;49.128;8.520;2024-01-06T10:18:46;99695.47;;;12.91;51.59
28428;BME280;15662;49.128;8.520;2024-01-06T10:21:21;99699.78;;;12.94;51.54
28428;BME280;15662;49.128;8.520;2024-01-06T10:23:49;99694.25;;;12.98;51.65
28428;BME280;15662;49.128;8.520;2024-01-06T10:26:18;99692.53;;;12.97;51.66
28428;BME280;15662;49.128;8.520;2024-01-06T10:28:45;99695.81;;;13.02;51.61
28428;BME280;15662;49.128;8.520;2024-01-06T10:31:12;99687.72;;;13.05;51.97
28428;BME280;15662;49.128;8.520;2024-01-06T10:33:41;99699.13;;;13.07;52.08
28428;BME280;15662;49.128;8.520;2024-01-06T10:36:08;99695.31;;;13.13;51.85
28428;BME280;15662;49.128;8.520;2024-01-06T10:38:36;99692.53;;;13.16;51.63
28428;BME280;15662;49.128;8.520;2024-01-06T10:41:04;99699.50;;;13.18;51.55
28428;BME280;15662;49.128;8.520;2024-01-06T10:43:36;99696.78;;;13.20;51.59
28428;BME280;15662;49.128;8.520;2024-01-06T10:46:05;99701.03;;;13.24;51.62
28428;BME280;15662;49.128;8.520;2024-01-06T10:48:39;99699.94;;;13.28;51.60
28428;BME280;15662;49.128;8.520;2024-01-06T10:51:14;99698.88;;;13.32;51.43
28428;BME280;15662;49.128;8.520;2024-01-06T10:53:43;99704.97;;;13.34;51.59
28428;BME280;15662;49.128;8.520;2024-01-06T10:56:11;99702.25;;;13.36;51.53
28428;BME280;15662;49.128;8.520;2024-01-06T10:58:45;99708.22;;;13.41;51.45
28428;BME280;15662;49.128;8.520;2024-01-06T11:01:14;99705.69;;;13.38;51.48
28428;BME280;15662;49.128;8.520;2024-01-06T11:03:48;99709.16;;;13.40;51.32
28428;BME280;15662;49.128;8.520;2024-01-06T11:06:17;99705.78;;;13.36;51.45
28428;BME280;15662;49.128;8.520;2024-01-06T11:11:36;99698.66;;;13.37;51.29
28428;BME280;15662;49.128;8.520;2024-01-06T11:14:25;99699.31;;;13.42;51.24
28428;BME280;15662;49.128;8.520;2024-01-06T11:16:54;99688.16;;;13.34;51.48
28428;BME280;15662;49.128;8.520;2024-01-06T11:22:37;99693.03;;;13.43;51.33
28428;BME280;15662;49.128;8.520;2024-01-06T11:25:13;99693.75;;;13.47;51.25
28428;BME280;15662;49.128;8.520;2024-01-06T11:27:43;99689.16;;;13.50;51.20
28428;BME280;15662;49.128;8.520;2024-01-06T11:30:26;99693.44;;;13.53;51.19
28428;BME280;15662;49.128;8.520;2024-01-06T11:32:56;99688.94;;;13.55;51.38
28428;BME280;15662;49.128;8.520;2024-01-06T11:35:30;99697.47;;;13.61;51.12
28428;BME280;15662;49.128;8.520;2024-01-06T11:38:00;99684.16;;;13.61;51.12
28428;BME280;15662;49.128;8.520;2024-01-06T11:40:34;99685.78;;;13.64;51.17
28428;BME280;15662;49.128;8.520;2024-01-06T11:43:10;99696.22;;;13.68;50.96
28428;BME280;15662;49.128;8.520;2024-01-06T11:45:41;99689.25;;;13.66;50.99
28428;BME280;15662;49.128;8.520;2024-01-06T11:48:11;99689.34;;;13.64;51.09
28428;BME280;15662;49.128;8.520;2024-01-06T11:50:41;99684.25;;;13.60;50.88
28428;BME280;15662;49.128;8.520;2024-01-06T11:53:08;99682.34;;;13.62;51.07
28428;BME280;15662;49.128;8.520;2024-01-06T11:55:41;99691.69;;;13.71;50.96
28428;BME280;15662;49.128;8.520;2024-01-06T11:58:10;99682.91;;;13.68;51.16
28428;BME280;15662;49.128;8.520;2024-01-06T12:00:37;99682.00;;;13.70;50.97
28428;BME280;15662;49.128;8.520;2024-01-06T12:03:07;99685.34;;;13.73;51.05
28428;BME280;15662;49.128;8.520;2024-01-06T12:05:34;99686.06;;;13.77;50.94
28428;BME280;15662;49.128;8.520;2024-01-06T12:08:03;99676.41;;;13.74;50.85
28428;BME280;15662;49.128;8.520;2024-01-06T12:10:34;99684.34;;;13.76;50.93
28428;BME280;15662;49.128;8.520;2024-01-06T12:13:06;99679.66;;;13.81;50.83
28428;BME280;15662;49.128;8.520;2024-01-06T12:15:42;99684.88;;;13.82;50.80
28428;BME280;15662;49.128;8.520;2024-01-06T12:18:43;99681.69;;;13.76;50.80
28428;BME280;15662;49.128;8.520;2024-01-06T12:21:44;99680.81;;;13.75;50.84
28428;BME280;15662;49.128;8.520;2024-01-06T12:24:50;99672.44;;;13.65;50.89
28428;BME280;15662;49.128;8.520;2024-01-06T12:27:52;99678.44;;;13.69;50.95
28428;BME280;15662;49.128;8.520;2024-01-06T12:30:54;99666.16;;;13.66;50.83
28428;BME280;15662;49.128;8.520;2024-01-06T12:33:55;99673.84;;;13.73;50.93
28428;BME280;15662;49.128;8.520;2024-01-06T12:36:58;99672.03;;;13.73;50.95
28428;BME280;15662;49.128;8.520;2024-01-06T12:40:02;99680.66;;;13.78;50.85
28428;BME280;15662;49.128;8.520;2024-01-06T12:43:04;99677.97;;;13.78;50.77
28428;BME280;15662;49.128;8.520;2024-01-06T12:46:05;99671.03;;;13.76;50.82
28428;BME280;15662;49.128;8.520;2024-01-06T12:49:06;99680.19;;;13.70;50.89
28428;BME280;15662;49.128;8.520;2024-01-06T12:52:07;99680.31;;;13.67;50.75
28428;BME280;15662;49.128;8.520;2024-01-06T12:55:08;99678.44;;;13.69;50.92
28428;BME280;15662;49.128;8.520;2024-01-06T12:58:10;99675.78;;;13.69;50.92
28428;BME280;15662;49.128;8.520;2024-01-06T13:01:10;99671.16;;;13.73;50.80
28428;BME280;15662;49.128;8.520;2024-01-06T13:04:12;99680.09;;;13.72;50.89
28428;BME280;15662;49.128;8.520;2024-01-06T13:07:12;99666.94;;;13.68;50.86
28428;BME280;15662;49.128;8.520;2024-01-06T13:10:13;99680.97;;;13.72;50.67
28428;BME280;15662;49.128;8.520;2024-01-06T13:13:14;99681.91;;;13.71;50.78
28428;BME280;15662;49.128;8.520;2024-01-06T13:16:08;99668.97;;;13.63;50.68
28428;BME280;15662;49.128;8.520;2024-01-06T13:18:36;99689.19;;;13.67;50.61
28428;BME280;15662;49.128;8.520;2024-01-06T13:21:04;99680.31;;;13.67;50.75